Time;durP1;ratioP1;P1;durP2;ratioP2;P2;SDS_P1;SDS_P2;PMS_P1;PMS_P2;Temp;Humidity;BMP_temperature;BMP_pressure;BME280_temperature;BME280_humidity;BME280_pressure;Samples;Min_cycle;Max_cycle;Signal;HPM_P1;HPM_P2
2023/08/21 00:00:59;;;;;;;8.45;4.43;;;27.20;98.70;;;;;;9663299;23;20161;-92
2023/08/21 00:04:44;;;;;;;4.40;4.00;;;27.10;98.70;;;;;;9662274;22;20157;-91
2023/08/21 00:08:30;;;;;;;5.28;4.30;;;27.10;98.70;;;;;;9663267;23;20177;-92
2023/08/21 00:12:15;;;;;;;6.60;4.28;;;27.10;98.80;;;;;;9664006;23;20240;-90
2023/08/21 00:16:01;;;;;;;5.25;3.97;;;27.00;98.80;;;;;;9660895;22;20495;-91
2023/08/21 00:19:46;;;;;;;5.63;4.50;;;27.00;98.90;;;;;;9662549;23;20153;-92
2023/08/21 00:23:32;;;;;;;6.65;3.85;;;27.00;98.90;;;;;;9662776;23;20164;-91
2023/08/21 00:27:18;;;;;;;4.78;3.42;;;27.00;98.90;;;;;;9662073;23;20185;-92
2023/08/21 00:31:04;;;;;;;4.85;3.70;;;26.90;99.00;;;;;;9662868;23;20157;-92
2023/08/21 00:34:50;;;;;;;4.28;3.88;;;26.90;99.00;;;;;;9662521;22;20178;-92
2023/08/21 00:38:35;;;;;;;4.70;4.05;;;26.80;99.00;;;;;;9662388;23;20217;-91
2023/08/21 00:42:21;;;;;;;5.60;4.20;;;26.80;99.10;;;;;;9662044;23;20498;-91
2023/08/21 00:46:07;;;;;;;5.63;3.97;;;26.80;99.20;;;;;;9662184;22;20212;-90
2023/08/21 00:49:53;;;;;;;5.47;3.85;;;26.70;99.20;;;;;;9662066;23;20217;-92
2023/08/21 00:53:38;;;;;;;5.13;4.18;;;26.70;99.30;;;;;;9662312;23;20153;-91
2023/08/21 00:57:25;;;;;;;4.28;3.75;;;26.70;99.30;;;;;;9689292;22;20174;-91
2023/08/21 01:01:13;;;;;;;7.38;4.15;;;26.70;99.30;;;;;;9664001;23;20158;-91
2023/08/21 01:04:58;;;;;;;7.10;4.50;;;26.60;99.30;;;;;;9688768;22;20172;-91
2023/08/21 01:08:57;;;;;;;6.13;3.90;;;26.60;99.30;;;;;;9661635;23;20227;-92
2023/08/21 01:12:53;;;;;;;3.75;3.42;;;26.50;99.40;;;;;;9661918;23;20153;-89
2023/08/21 01:16:42;;;;;;;4.90;3.50;;;26.50;99.40;;;;;;9661830;23;20226;-90
2023/08/21 01:20:28;;;;;;;6.05;4.05;;;26.40;99.50;;;;;;9661035;23;20168;-91
2023/08/21 01:24:14;;;;;;;6.43;3.85;;;26.40;99.50;;;;;;9688377;23;20157;-91
2023/08/21 01:28:00;;;;;;;5.85;4.05;;;26.40;99.60;;;;;;9661461;23;20208;-91
2023/08/21 01:31:57;;;;;;;5.03;4.07;;;26.30;99.60;;;;;;9661433;23;20496;-92
2023/08/21 01:35:43;;;;;;;6.50;3.85;;;26.30;99.60;;;;;;9661210;22;20234;-90
2023/08/21 01:39:29;;;;;;;4.57;3.60;;;26.20;99.60;;;;;;9661219;23;20621;-92
2023/08/21 01:43:14;;;;;;;5.07;3.80;;;26.20;99.60;;;;;;9661539;23;20548;-91
2023/08/21 01:47:00;;;;;;;4.65;3.50;;;26.20;99.70;;;;;;9661767;23;20229;-92
2023/08/21 01:50:45;;;;;;;8.38;4.13;;;26.10;99.60;;;;;;9661631;23;20160;-91
2023/08/21 01:54:31;;;;;;;4.47;4.00;;;26.10;99.80;;;;;;9661835;22;20286;-93
2023/08/21 01:58:16;;;;;;;4.93;4.18;;;26.10;99.90;;;;;;9661176;23;20157;-91
2023/08/21 02:02:02;;;;;;;8.38;4.30;;;26.00;99.90;;;;;;9660553;23;20165;-91
2023/08/21 02:05:48;;;;;;;4.95;4.25;;;25.90;99.90;;;;;;9687824;22;20173;-91
2023/08/21 02:09:33;;;;;;;4.95;4.07;;;25.90;99.90;;;;;;9661120;23;20154;-92
2023/08/21 02:13:19;;;;;;;5.22;3.80;;;25.90;99.90;;;;;;9661285;23;20172;-89
2023/08/21 02:17:05;;;;;;;4.45;4.05;;;25.80;99.90;;;;;;9660918;23;20515;-92
2023/08/21 02:20:51;;;;;;;7.80;4.60;;;25.80;99.90;;;;;;9660917;23;20321;-91
2023/08/21 02:24:38;;;;;;;4.70;4.07;;;25.70;99.90;;;;;;9660925;22;20244;-90
2023/08/21 02:28:23;;;;;;;6.28;4.15;;;25.70;99.90;;;;;;9660969;23;20181;-91
2023/08/21 02:32:09;;;;;;;6.70;4.88;;;25.60;99.90;;;;;;9661834;23;20613;-90
2023/08/21 02:35:55;;;;;;;4.47;4.07;;;25.60;99.90;;;;;;9663647;22;20174;-91
2023/08/21 02:39:40;;;;;;;5.55;4.47;;;25.60;99.90;;;;;;9663779;23;20169;-90
2023/08/21 02:43:26;;;;;;;5.15;3.88;;;25.50;99.90;;;;;;9664119;23;20614;-91
2023/08/21 02:47:11;;;;;;;7.28;4.53;;;25.50;99.90;;;;;;9663215;23;20890;-89
2023/08/21 02:50:57;;;;;;;4.78;4.28;;;25.50;99.90;;;;;;9663211;23;20149;-91
2023/08/21 02:54:42;;;;;;;5.65;4.10;;;25.50;99.90;;;;;;9666659;22;20157;-89
2023/08/21 02:58:28;;;;;;;4.38;3.65;;;25.40;99.90;;;;;;9663581;23;20185;-89
2023/08/21 03:02:14;;;;;;;4.82;4.32;;;25.40;99.90;;;;;;9663216;23;20613;-92
2023/08/21 03:05:59;;;;;;;5.40;4.03;;;25.30;99.90;;;;;;9662915;22;20636;-91
2023/08/21 03:09:49;;;;;;;4.72;4.20;;;25.30;99.90;;;;;;9662849;23;20160;-91
2023/08/21 03:13:35;;;;;;;5.80;4.47;;;25.20;99.90;;;;;;9690187;23;20149;-89
2023/08/21 03:17:20;;;;;;;9.93;4.20;;;25.10;99.90;;;;;;9663269;23;20239;-90
2023/08/21 03:21:06;;;;;;;5.18;4.10;;;25.10;99.90;;;;;;9663352;23;20165;-91
2023/08/21 03:24:52;;;;;;;6.65;4.03;;;25.10;99.90;;;;;;9662556;22;20204;-91
2023/08/21 03:28:37;;;;;;;5.10;4.32;;;25.00;99.90;;;;;;9690005;23;20177;-89
2023/08/21 03:32:23;;;;;;;4.25;3.85;;;25.00;99.90;;;;;;9664189;23;20154;-90
2023/08/21 03:36:08;;;;;;;5.97;4.55;;;25.00;99.90;;;;;;9690169;22;20188;-89
2023/08/21 03:39:54;;;;;;;7.20;4.50;;;24.90;99.90;;;;;;9663587;23;20157;-90
2023/08/21 03:43:40;;;;;;;5.95;4.05;;;24.90;99.90;;;;;;9663135;23;20153;-89
2023/08/21 03:47:25;;;;;;;5.20;3.88;;;24.90;99.90;;;;;;9662834;23;20196;-90
2023/08/21 03:51:11;;;;;;;5.32;3.90;;;24.80;99.90;;;;;;9663377;23;20165;-91
2023/08/21 03:54:56;;;;;;;6.22;4.40;;;24.90;99.90;;;;;;9663338;22;20566;-90
2023/08/21 03:58:43;;;;;;;4.60;4.20;;;24.80;99.90;;;;;;9661353;23;20242;-90
2023/08/21 04:02:29;;;;;;;5.25;4.47;;;24.80;99.90;;;;;;9662732;23;20500;-90
2023/08/21 04:06:15;;;;;;;5.72;4.82;;;24.80;99.90;;;;;;9662060;23;20216;-90
2023/08/21 04:10:00;;;;;;;6.28;4.57;;;24.80;99.90;;;;;;9662288;23;20163;-89
2023/08/21 04:13:46;;;;;;;5.18;4.50;;;24.70;99.90;;;;;;9662275;23;20164;-90
2023/08/21 04:17:32;;;;;;;7.72;5.00;;;24.70;99.90;;;;;;9663008;23;20182;-90
2023/08/21 04:21:17;;;;;;;5.45;4.47;;;24.60;99.90;;;;;;9662450;23;20184;-89
2023/08/21 04:25:03;;;;;;;5.85;4.57;;;24.60;99.90;;;;;;9662217;22;20185;-90
2023/08/21 04:28:49;;;;;;;7.43;4.53;;;24.60;99.90;;;;;;9661682;23;20527;-90
2023/08/21 04:32:34;;;;;;;6.05;4.50;;;24.60;99.90;;;;;;9662429;23;20586;-90
2023/08/21 04:36:20;;;;;;;6.53;4.60;;;24.50;99.90;;;;;;9661646;23;20189;-90
2023/08/21 04:40:06;;;;;;;5.68;4.30;;;24.50;99.90;;;;;;9661935;23;20500;-90
2023/08/21 04:43:51;;;;;;;6.90;5.07;;;24.50;99.90;;;;;;9662278;23;20154;-90
2023/08/21 04:47:37;;;;;;;6.68;5.03;;;24.50;99.90;;;;;;9661949;23;20243;-90
2023/08/21 04:51:23;;;;;;;6.38;5.78;;;24.50;99.90;;;;;;9661899;23;20474;-90
2023/08/21 04:55:08;;;;;;;7.18;6.18;;;24.40;99.90;;;;;;9661525;22;20233;-90
2023/08/21 04:58:55;;;;;;;7.18;5.80;;;24.40;99.90;;;;;;9661358;23;20164;-89
2023/08/21 05:02:41;;;;;;;5.75;5.00;;;24.40;99.90;;;;;;9661207;23;20508;-89
2023/08/21 05:06:29;;;;;;;8.30;5.70;;;24.40;99.90;;;;;;9660751;23;20211;-90
2023/08/21 05:10:15;;;;;;;5.38;4.57;;;24.30;99.90;;;;;;9688403;23;20164;-90
2023/08/21 05:14:01;;;;;;;5.95;5.22;;;24.30;99.90;;;;;;9661352;23;20158;-89
2023/08/21 05:17:46;;;;;;;6.25;4.90;;;24.30;99.90;;;;;;9661072;23;20706;-88
2023/08/21 05:21:32;;;;;;;6.60;5.43;;;24.30;99.90;;;;;;9661926;23;20161;-90
2023/08/21 05:25:17;;;;;;;6.72;5.20;;;24.30;99.90;;;;;;9661527;22;20181;-90
2023/08/21 05:29:03;;;;;;;7.65;5.22;;;24.30;99.90;;;;;;9661621;23;20235;-90
2023/08/21 05:32:48;;;;;;;6.53;5.20;;;24.30;99.90;;;;;;9661532;23;20157;-89
2023/08/21 05:36:34;;;;;;;7.95;4.80;;;24.30;99.90;;;;;;9661110;23;20200;-90
2023/08/21 05:40:20;;;;;;;6.57;4.97;;;24.30;99.90;;;;;;9661487;23;20165;-90
2023/08/21 05:44:05;;;;;;;5.43;4.60;;;24.30;99.90;;;;;;9688055;23;20181;-89
2023/08/21 05:47:51;;;;;;;5.97;5.38;;;24.30;99.90;;;;;;9661488;23;20526;-89
2023/08/21 05:51:36;;;;;;;8.23;5.80;;;24.30;99.90;;;;;;9660888;23;20168;-90
2023/08/21 05:55:22;;;;;;;6.15;5.30;;;24.30;99.90;;;;;;9660564;22;20181;-90
2023/08/21 05:59:11;;;;;;;6.10;5.50;;;24.30;99.90;;;;;;9661211;23;20193;-89
2023/08/21 06:02:57;;;;;;;6.60;5.97;;;24.30;99.90;;;;;;9661158;23;20161;-89
2023/08/21 06:06:42;;;;;;;6.70;6.00;;;24.30;99.90;;;;;;9661749;23;20243;-89
2023/08/21 06:10:28;;;;;;;9.10;6.00;;;24.20;99.90;;;;;;9664696;23;20660;-89
2023/08/21 06:14:14;;;;;;;9.75;7.88;;;24.30;99.90;;;;;;9664389;23;20153;-89
2023/08/21 06:18:00;;;;;;;6.95;6.25;;;24.30;99.90;;;;;;9663693;23;20202;-89
2023/08/21 06:21:45;;;;;;;8.60;7.20;;;24.20;99.90;;;;;;9691064;23;20153;-89
2023/08/21 06:25:32;;;;;;;9.65;6.63;;;24.10;99.90;;;;;;9663976;22;20184;-89
2023/08/21 06:29:20;;;;;;;10.93;7.00;;;24.20;99.90;;;;;;9663824;23;20215;-89
2023/08/21 06:33:06;;;;;;;7.28;6.57;;;24.20;99.90;;;;;;9664067;23;20224;-89
2023/08/21 06:36:51;;;;;;;10.13;7.22;;;24.20;99.90;;;;;;9664905;23;20204;-90
2023/08/21 06:40:37;;;;;;;9.77;7.78;;;24.30;99.90;;;;;;9664267;23;20165;-90
2023/08/21 06:44:23;;;;;;;12.05;7.97;;;24.50;99.90;;;;;;9663753;23;20165;-89
2023/08/21 06:48:08;;;;;;;9.90;6.93;;;24.50;99.90;;;;;;9663339;23;20664;-90
2023/08/21 06:51:54;;;;;;;10.55;7.82;;;24.70;99.90;;;;;;9663639;23;20612;-90
2023/08/21 06:55:39;;;;;;;11.88;7.00;;;24.80;99.90;;;;;;9663724;22;20185;-90
2023/08/21 06:59:25;;;;;;;8.32;7.50;;;24.80;99.90;;;;;;9663452;23;20189;-89
2023/08/21 07:03:11;;;;;;;9.02;7.93;;;24.70;99.90;;;;;;9663350;23;20180;-89
2023/08/21 07:06:56;;;;;;;15.18;8.88;;;24.90;99.90;;;;;;9663214;23;20195;-90
2023/08/21 07:10:42;;;;;;;9.90;8.55;;;25.10;99.90;;;;;;9663609;23;20160;-89
2023/08/21 07:14:27;;;;;;;10.68;7.90;;;25.00;99.90;;;;;;9690051;23;20606;-89
2023/08/21 07:18:13;;;;;;;9.40;8.07;;;24.90;99.90;;;;;;9663393;23;20185;-90
2023/08/21 07:21:59;;;;;;;11.68;8.15;;;25.00;99.90;;;;;;9663745;23;20292;-90
2023/08/21 07:25:45;;;;;;;10.38;8.52;;;25.00;99.90;;;;;;9663394;22;20182;-90
2023/08/21 07:29:30;;;;;;;16.20;9.60;;;25.20;99.90;;;;;;9663364;23;20185;-90
2023/08/21 07:33:16;;;;;;;10.30;9.20;;;25.30;99.90;;;;;;9690230;23;20150;-89
2023/08/21 07:37:02;;;;;;;10.35;8.98;;;25.20;99.90;;;;;;9662910;23;20224;-89
2023/08/21 07:40:47;;;;;;;11.73;9.32;;;25.20;99.90;;;;;;9663232;23;20162;-90
2023/08/21 07:44:33;;;;;;;9.75;8.75;;;25.30;99.90;;;;;;9662637;22;20161;-89
2023/08/21 07:48:22;;;;;;;12.73;8.88;;;25.30;99.90;;;;;;9662362;23;20264;-90
2023/08/21 07:52:07;;;;;;;12.82;9.73;;;25.30;99.90;;;;;;9662619;23;20226;-90
2023/08/21 07:55:53;;;;;;;10.23;9.20;;;25.40;99.90;;;;;;9662462;22;20243;-89
2023/08/21 07:59:39;;;;;;;15.85;9.80;;;25.50;99.90;;;;;;9662224;23;20601;-90
2023/08/21 08:03:25;;;;;;;11.98;9.73;;;25.50;99.90;;;;;;9662494;23;20165;-89
2023/08/21 08:07:10;;;;;;;12.48;10.38;;;25.60;99.90;;;;;;9662351;23;20192;-90
2023/08/21 08:11:02;;;;;;;10.73;9.63;;;25.70;99.90;;;;;;9662574;23;20593;-90
2023/08/21 08:14:47;;;;;;;14.60;10.48;;;25.70;99.90;;;;;;9662405;22;20192;-90
2023/08/21 08:18:33;;;;;;;14.35;10.45;;;25.80;99.90;;;;;;9662291;23;20157;-90
2023/08/21 08:22:19;;;;;;;14.85;9.77;;;25.80;99.90;;;;;;9662416;23;20794;-90
2023/08/21 08:26:04;;;;;;;11.48;9.85;;;25.80;99.90;;;;;;9661714;22;20185;-90
2023/08/21 08:29:50;;;;;;;16.73;11.23;;;25.80;99.90;;;;;;9661900;23;20161;-90
2023/08/21 08:33:36;;;;;;;13.45;10.63;;;26.00;99.90;;;;;;9662108;23;20203;-89
2023/08/21 08:37:21;;;;;;;12.80;10.80;;;26.20;99.90;;;;;;9661882;23;20545;-89
2023/08/21 08:41:13;;;;;;;12.50;11.20;;;26.20;99.90;;;;;;9662142;23;20161;-89
2023/08/21 08:45:03;;;;;;;15.20;11.55;;;26.30;99.90;;;;;;9662104;22;20181;-89
2023/08/21 08:48:51;;;;;;;13.05;11.35;;;26.30;99.90;;;;;;9661957;23;20523;-90
2023/08/21 08:52:39;;;;;;;15.32;11.23;;;26.40;99.90;;;;;;9662327;23;20142;-89
2023/08/21 08:56:24;;;;;;;12.10;10.88;;;26.60;99.90;;;;;;9661833;23;20177;-89
2023/08/21 09:00:11;;;;;;;15.82;10.40;;;26.50;99.90;;;;;;9661901;23;20244;-90
2023/08/21 09:03:56;;;;;;;19.42;11.73;;;26.40;99.90;;;;;;9661599;23;20165;-90
2023/08/21 09:07:45;;;;;;;13.48;10.00;;;26.50;99.90;;;;;;9661559;23;20274;-90
2023/08/21 09:11:33;;;;;;;11.68;10.48;;;26.70;99.90;;;;;;9661453;23;20573;-89
2023/08/21 09:15:18;;;;;;;12.02;10.23;;;26.90;99.90;;;;;;9661415;22;20181;-90
2023/08/21 09:19:05;;;;;;;10.88;9.77;;;27.10;99.90;;;;;;9661629;23;20204;-90
2023/08/21 09:22:57;;;;;;;14.88;10.40;;;27.30;99.90;;;;;;9661622;23;20623;-91
2023/08/21 09:26:43;;;;;;;13.95;10.32;;;27.40;99.90;;;;;;9660835;23;20192;-89
2023/08/21 09:30:28;;;;;;;14.77;10.20;;;27.60;99.90;;;;;;9661344;23;20299;-89
2023/08/21 09:34:22;;;;;;;12.60;10.18;;;27.40;99.90;;;;;;9661161;23;20487;-90
2023/08/21 09:38:08;;;;;;;13.32;10.48;;;27.40;99.90;;;;;;9659258;23;20280;-90
2023/08/21 09:41:56;;;;;;;11.20;9.30;;;27.40;99.90;;;;;;9658668;23;20161;-91
2023/08/21 09:45:52;;;;;;;10.93;9.82;;;27.50;99.90;;;;;;9659616;22;20671;-91
2023/08/21 09:49:39;;;;;;;13.32;9.95;;;27.50;99.90;;;;;;9659587;23;20176;-90
2023/08/21 09:53:25;;;;;;;10.52;9.02;;;27.50;99.90;;;;;;9660778;23;20203;-91
2023/08/21 09:57:12;;;;;;;12.07;8.25;;;27.50;99.90;;;;;;9660016;23;20625;-91
2023/08/21 10:00:59;;;;;;;12.18;8.73;;;27.60;99.90;;;;;;9688151;23;20199;-89
2023/08/21 10:04:48;;;;;;;9.57;8.57;;;27.60;99.90;;;;;;9659824;22;20605;-92
2023/08/21 10:08:39;;;;;;;9.57;7.93;;;27.70;99.90;;;;;;9660062;23;20620;-92
2023/08/21 10:12:26;;;;;;;9.80;7.30;;;27.80;99.90;;;;;;9660468;23;20142;-91
2023/08/21 10:16:13;;;;;;;11.75;8.80;;;28.00;99.90;;;;;;9659571;22;20700;-90
2023/08/21 10:20:07;;;;;;;14.98;8.98;;;28.10;99.90;;;;;;9688478;23;20209;-91
2023/08/21 10:23:55;;;;;;;9.55;8.52;;;28.10;99.90;;;;;;9661751;23;20225;-91
2023/08/21 10:27:42;;;;;;;9.95;8.40;;;28.20;99.90;;;;;;9659634;23;20189;-91
2023/08/21 10:31:39;;;;;;;9.45;8.55;;;28.30;99.90;;;;;;9660917;23;20764;-90
2023/08/21 10:35:31;;;;;;;9.65;8.65;;;28.20;99.90;;;;;;9661442;22;20259;-91
2023/08/21 10:39:17;;;;;;;10.50;7.88;;;28.30;99.90;;;;;;9658094;23;20176;-89
2023/08/21 10:43:03;;;;;;;10.30;7.60;;;28.50;99.90;;;;;;9661065;23;20829;-92
2023/08/21 10:46:53;;;;;;;11.02;7.85;;;28.60;99.60;;;;;;9660780;23;20189;-92
2023/08/21 10:50:38;;;;;;;12.13;7.50;;;28.70;98.40;;;;;;9661373;23;20171;-91
2023/08/21 10:54:24;;;;;;;10.63;7.22;;;28.80;97.60;;;;;;9663762;23;20153;-91
2023/08/21 10:58:11;;;;;;;9.25;7.32;;;28.80;97.70;;;;;;9663276;23;20703;-91
2023/08/21 11:01:57;;;;;;;12.98;7.80;;;28.90;97.00;;;;;;9665109;23;20208;-90
2023/08/21 11:05:42;;;;;;;11.43;7.13;;;28.90;97.00;;;;;;9664398;22;20516;-91
2023/08/21 11:09:29;;;;;;;12.00;7.85;;;28.90;96.40;;;;;;9663643;23;20220;-91
2023/08/21 11:13:15;;;;;;;8.63;7.30;;;29.00;96.40;;;;;;9664329;23;20153;-92
2023/08/21 11:17:01;;;;;;;11.60;7.35;;;29.00;96.20;;;;;;9664160;23;20214;-92
2023/08/21 11:20:46;;;;;;;8.15;6.97;;;29.10;96.90;;;;;;9663931;23;20563;-90
2023/08/21 11:24:39;;;;;;;9.88;7.07;;;29.10;96.40;;;;;;9690695;22;20153;-92
2023/08/21 11:28:25;;;;;;;11.68;7.15;;;29.20;95.80;;;;;;9663908;23;20192;-92
2023/08/21 11:32:16;;;;;;;12.25;8.07;;;29.30;96.10;;;;;;9664645;23;20153;-91
2023/08/21 11:36:02;;;;;;;9.52;7.88;;;29.30;95.40;;;;;;9690894;22;20628;-92
2023/08/21 11:39:55;;;;;;;9.00;6.93;;;29.40;94.30;;;;;;9664676;23;20492;-92
2023/08/21 11:43:42;;;;;;;9.73;6.53;;;29.40;94.00;;;;;;9664280;23;20161;-91
2023/08/21 11:47:33;;;;;;;9.20;6.75;;;29.60;93.00;;;;;;9662483;23;20192;-91
2023/08/21 11:51:25;;;;;;;7.72;6.80;;;29.60;93.50;;;;;;9663135;23;20161;-92
2023/08/21 11:55:10;;;;;;;9.55;6.65;;;29.60;92.80;;;;;;9663066;22;20187;-92
2023/08/21 11:58:58;;;;;;;8.45;6.57;;;29.70;93.20;;;;;;9662919;23;20161;-91
2023/08/21 12:02:44;;;;;;;8.55;6.40;;;29.70;91.60;;;;;;9663639;23;20172;-91
2023/08/21 12:06:32;;;;;;;7.55;5.95;;;29.80;91.70;;;;;;9662688;23;20185;-92
2023/08/21 12:10:28;;;;;;;7.63;5.82;;;29.70;91.60;;;;;;9663714;23;20154;-92
2023/08/21 12:14:14;;;;;;;7.13;6.43;;;29.80;91.60;;;;;;9663054;23;20161;-92
2023/08/21 12:18:11;;;;;;;9.73;6.30;;;29.90;91.80;;;;;;9664584;23;20193;-92
2023/08/21 12:21:58;;;;;;;8.40;6.47;;;29.80;91.30;;;;;;9663986;23;20625;-91
2023/08/21 12:25:44;;;;;;;7.40;6.50;;;29.80;91.00;;;;;;9668203;22;20208;-93
2023/08/21 12:29:31;;;;;;;6.72;6.00;;;29.80;91.20;;;;;;9670672;23;20257;-94
2023/08/21 12:33:17;;;;;;;7.80;6.05;;;29.80;91.50;;;;;;9672032;23;20142;-93
2023/08/21 12:37:03;;;;;;;6.55;5.88;;;29.90;90.90;;;;;;9670405;23;20641;-93
2023/08/21 12:40:49;;;;;;;8.93;6.13;;;29.80;90.00;;;;;;9670082;23;20307;-93
2023/08/21 12:44:35;;;;;;;9.52;6.45;;;29.80;89.80;;;;;;9668274;22;20157;-93
2023/08/21 12:48:21;;;;;;;10.35;6.72;;;29.80;90.60;;;;;;9663681;23;20234;-92
2023/08/21 12:52:07;;;;;;;7.82;6.22;;;29.70;90.30;;;;;;9662586;23;20193;-91
2023/08/21 12:55:54;;;;;;;6.22;5.65;;;29.70;90.20;;;;;;9662836;22;20180;-91
2023/08/21 12:59:39;;;;;;;6.95;6.20;;;29.70;90.30;;;;;;9662080;23;20146;-90
2023/08/21 13:03:26;;;;;;;9.23;6.47;;;29.70;90.40;;;;;;9662844;23;20204;-92
2023/08/21 13:07:12;;;;;;;10.00;6.13;;;29.90;90.60;;;;;;9662776;23;20234;-91
2023/08/21 13:11:02;;;;;;;6.72;5.80;;;30.10;90.50;;;;;;9662365;23;20215;-91
2023/08/21 13:14:48;;;;;;;7.07;5.95;;;30.20;90.10;;;;;;9662365;22;20154;-92
2023/08/21 13:18:34;;;;;;;8.88;5.82;;;30.20;90.90;;;;;;9664394;23;20169;-93
2023/08/21 13:22:19;;;;;;;12.07;6.60;;;30.30;88.70;;;;;;9667019;23;20161;-93
2023/08/21 13:26:05;;;;;;;9.45;6.53;;;30.30;87.80;;;;;;9666254;22;20181;-92
2023/08/21 13:29:51;;;;;;;10.10;6.30;;;30.30;86.60;;;;;;9666372;23;20220;-93
2023/08/21 13:33:53;;;;;;;8.40;6.00;;;30.10;87.10;;;;;;9670661;23;20222;-93
2023/08/21 13:37:40;;;;;;;6.95;5.43;;;30.10;87.30;;;;;;9696942;22;20185;-93
2023/08/21 13:41:25;;;;;;;7.13;5.55;;;30.10;87.70;;;;;;9667020;23;20157;-92
2023/08/21 13:45:14;;;;;;;11.32;6.10;;;30.10;87.40;;;;;;9667651;22;20184;-94
2023/08/21 13:49:00;;;;;;;11.02;6.22;;;30.20;88.00;;;;;;9665336;23;20181;-93
2023/08/21 13:52:47;;;;;;;5.80;5.18;;;30.10;86.90;;;;;;9664408;23;20230;-92
2023/08/21 13:56:32;;;;;;;7.93;5.78;;;30.00;87.60;;;;;;9665977;23;20177;-91
2023/08/21 14:00:18;;;;;;;7.90;5.32;;;30.10;88.10;;;;;;9665901;23;20209;-93
2023/08/21 14:04:06;;;;;;;8.45;5.28;;;30.10;85.40;;;;;;9665024;23;20803;-93
2023/08/21 14:07:52;;;;;;;6.35;4.97;;;30.10;85.70;;;;;;9694631;22;20370;-93
2023/08/21 14:11:38;;;;;;;11.10;5.68;;;30.20;87.40;;;;;;9666179;23;20185;-93
2023/08/21 14:15:25;;;;;;;10.07;5.95;;;30.30;85.10;;;;;;9664514;22;20181;-93
2023/08/21 14:19:11;;;;;;;6.57;5.43;;;30.30;85.10;;;;;;9665708;23;20157;-93
2023/08/21 14:22:57;;;;;;;5.78;5.25;;;30.20;83.80;;;;;;9691982;23;20219;-92
2023/08/21 14:26:43;;;;;;;6.53;4.85;;;30.00;84.50;;;;;;9664496;23;20188;-93
2023/08/21 14:30:28;;;;;;;6.32;4.53;;;30.00;85.90;;;;;;9667737;23;20158;-92
2023/08/21 14:34:15;;;;;;;6.32;5.55;;;30.00;82.80;;;;;;9668213;23;20158;-93
2023/08/21 14:38:01;;;;;;;6.95;5.70;;;30.00;84.70;;;;;;9667030;23;20193;-92
2023/08/21 14:41:46;;;;;;;6.10;5.47;;;30.00;86.70;;;;;;9666888;23;20164;-93
2023/08/21 14:45:32;;;;;;;6.35;5.63;;;30.10;85.70;;;;;;9668013;22;20173;-91
2023/08/21 14:49:18;;;;;;;11.77;5.80;;;30.20;86.00;;;;;;9668655;23;20188;-93
2023/08/21 14:53:05;;;;;;;6.93;5.50;;;30.30;85.80;;;;;;9667920;23;20608;-92
2023/08/21 14:56:51;;;;;;;7.75;5.97;;;30.20;85.40;;;;;;9668460;23;20177;-92
2023/08/21 15:00:37;;;;;;;8.75;5.50;;;30.30;84.60;;;;;;9669205;23;20164;-90
2023/08/21 15:04:22;;;;;;;7.72;5.25;;;30.30;83.00;;;;;;9668920;23;20617;-93
2023/08/21 15:08:08;;;;;;;5.15;4.70;;;30.20;81.30;;;;;;9668843;23;20185;-92
2023/08/21 15:11:54;;;;;;;7.95;4.70;;;30.20;82.40;;;;;;9668007;23;20484;-93
2023/08/21 15:15:39;;;;;;;8.88;4.80;;;30.10;80.00;;;;;;9668545;22;20784;-93
2023/08/21 15:19:25;;;;;;;6.00;4.40;;;30.20;80.50;;;;;;9668299;23;20157;-92
2023/08/21 15:23:10;;;;;;;5.32;4.82;;;30.20;81.50;;;;;;9668333;23;20161;-92
2023/08/21 15:26:56;;;;;;;6.75;4.70;;;30.30;81.40;;;;;;9694506;22;20181;-91
2023/08/21 15:30:42;;;;;;;7.00;4.72;;;30.30;80.60;;;;;;9667422;23;20217;-92
2023/08/21 15:34:27;;;;;;;6.95;4.97;;;30.30;80.20;;;;;;9667835;23;20240;-93
2023/08/21 15:38:13;;;;;;;5.18;4.65;;;30.20;81.10;;;;;;9666836;23;20679;-91
2023/08/21 15:41:59;;;;;;;7.47;6.45;;;30.20;83.10;;;;;;9667844;23;20328;-93
2023/08/21 15:45:45;;;;;;;8.93;6.13;;;30.20;84.50;;;;;;9667716;22;20177;-92
2023/08/21 15:49:31;;;;;;;8.10;5.97;;;30.20;86.00;;;;;;9667468;23;20219;-91
2023/08/21 15:53:17;;;;;;;7.82;6.03;;;30.20;85.60;;;;;;9666924;23;20193;-93
2023/08/21 15:57:04;;;;;;;11.38;6.65;;;30.10;85.90;;;;;;9668348;23;20188;-93
2023/08/21 16:00:50;;;;;;;7.75;6.30;;;30.10;85.70;;;;;;9695390;23;20168;-92
2023/08/21 16:04:36;;;;;;;8.35;6.28;;;30.00;87.10;;;;;;9666964;22;20177;-93
2023/08/21 16:08:22;;;;;;;8.20;6.32;;;29.90;86.00;;;;;;9666784;23;20177;-93
2023/08/21 16:12:09;;;;;;;6.70;5.68;;;29.90;86.70;;;;;;9666700;23;20676;-93
2023/08/21 16:15:55;;;;;;;7.30;5.93;;;30.00;86.80;;;;;;9664799;22;20253;-90
2023/08/21 16:19:41;;;;;;;11.30;6.43;;;30.00;87.20;;;;;;9667132;23;20161;-93
2023/08/21 16:23:26;;;;;;;8.98;5.88;;;29.90;85.30;;;;;;9668932;23;20158;-92
2023/08/21 16:27:13;;;;;;;8.07;5.40;;;29.80;86.40;;;;;;9668488;23;20277;-92
2023/08/21 16:30:58;;;;;;;8.25;5.90;;;29.70;85.90;;;;;;9668568;23;20142;-92
2023/08/21 16:34:45;;;;;;;6.55;5.78;;;29.80;86.60;;;;;;9666172;22;20169;-92
2023/08/21 16:38:31;;;;;;;6.18;5.57;;;29.80;85.90;;;;;;9667650;23;20242;-93
2023/08/21 16:42:16;;;;;;;8.80;5.63;;;29.80;87.30;;;;;;9668618;23;20162;-92
2023/08/21 16:46:03;;;;;;;9.50;5.38;;;29.90;87.00;;;;;;9667520;22;20235;-93
2023/08/21 16:49:55;;;;;;;10.45;5.93;;;30.00;86.50;;;;;;9691850;23;20165;-93
2023/08/21 16:53:42;;;;;;;7.53;5.60;;;29.90;84.30;;;;;;9665465;23;20157;-92
2023/08/21 16:57:28;;;;;;;6.90;5.72;;;29.90;84.00;;;;;;9665386;23;20203;-93
2023/08/21 17:01:13;;;;;;;6.00;5.35;;;29.80;84.20;;;;;;9665657;23;20165;-92
2023/08/21 17:04:59;;;;;;;7.95;5.53;;;29.70;84.00;;;;;;9665197;22;20173;-93
2023/08/21 17:08:46;;;;;;;8.20;5.38;;;29.70;84.20;;;;;;9664046;23;20204;-92
2023/08/21 17:12:32;;;;;;;6.95;5.45;;;29.80;85.10;;;;;;9666376;23;20177;-93
2023/08/21 17:16:18;;;;;;;6.25;5.60;;;29.70;84.00;;;;;;9665418;23;20177;-93
2023/08/21 17:20:05;;;;;;;7.18;5.45;;;29.60;84.50;;;;;;9668228;23;20161;-92
2023/08/21 17:23:50;;;;;;;6.15;5.30;;;29.70;84.50;;;;;;9664816;23;20206;-91
2023/08/21 17:27:36;;;;;;;10.98;5.40;;;29.70;84.00;;;;;;9666131;23;20185;-94
2023/08/21 17:31:22;;;;;;;8.38;5.20;;;29.70;86.00;;;;;;9668487;23;20620;-93
2023/08/21 17:35:08;;;;;;;7.60;4.90;;;29.70;87.40;;;;;;9695116;22;20505;-93
2023/08/21 17:38:56;;;;;;;8.23;5.18;;;29.80;88.40;;;;;;9664650;23;20617;-92
2023/08/21 17:42:41;;;;;;;5.90;5.30;;;29.70;88.20;;;;;;9665639;23;20153;-92
2023/08/21 17:46:30;;;;;;;7.80;5.45;;;29.60;88.00;;;;;;9662060;23;20201;-92
2023/08/21 17:50:16;;;;;;;6.95;5.75;;;29.60;89.80;;;;;;9663441;23;20822;-93
2023/08/21 17:54:01;;;;;;;6.03;5.38;;;29.70;90.30;;;;;;9663904;23;20479;-92
2023/08/21 17:57:47;;;;;;;8.85;5.60;;;29.70;90.30;;;;;;9662724;23;20235;-92
2023/08/21 18:01:33;;;;;;;8.20;5.65;;;29.80;90.30;;;;;;9662641;23;20593;-92
2023/08/21 18:05:20;;;;;;;6.50;5.80;;;29.80;90.60;;;;;;9662462;22;20180;-93
2023/08/21 18:09:07;;;;;;;6.55;5.75;;;29.80;90.80;;;;;;9663340;23;20170;-93
2023/08/21 18:12:54;;;;;;;9.60;5.88;;;29.80;90.90;;;;;;9663107;23;20158;-93
2023/08/21 18:16:45;;;;;;;8.40;5.57;;;29.80;91.00;;;;;;9661172;23;20200;-93
2023/08/21 18:20:51;;;;;;;7.80;6.00;;;29.80;91.00;;;;;;9662468;23;20145;-92
2023/08/21 18:24:37;;;;;;;10.07;6.30;;;29.80;90.50;;;;;;9660685;22;20146;-92
2023/08/21 18:28:24;;;;;;;6.57;5.95;;;29.60;90.50;;;;;;9661577;23;20268;-92
2023/08/21 18:32:10;;;;;;;9.35;5.60;;;29.60;91.00;;;;;;9661532;23;20158;-90
2023/08/21 18:35:55;;;;;;;7.20;5.35;;;29.60;91.00;;;;;;9661713;22;20189;-90
2023/08/21 18:39:41;;;;;;;7.93;5.53;;;29.60;90.90;;;;;;9685026;23;20146;-91
2023/08/21 18:43:27;;;;;;;6.43;5.70;;;29.50;91.00;;;;;;9659601;23;20161;-91
2023/08/21 18:47:13;;;;;;;6.13;5.60;;;29.50;91.20;;;;;;9686818;22;20184;-91
2023/08/21 18:51:00;;;;;;;8.68;5.82;;;29.40;91.10;;;;;;9664263;23;20158;-90
2023/08/21 18:54:46;;;;;;;7.07;5.47;;;29.40;91.20;;;;;;9665462;22;20581;-90
2023/08/21 18:58:33;;;;;;;5.43;4.93;;;29.40;91.20;;;;;;9661552;23;20560;-91
2023/08/21 19:02:24;;;;;;;7.60;6.13;;;29.30;90.90;;;;;;9661692;23;20211;-89
2023/08/21 19:06:11;;;;;;;5.57;4.97;;;29.20;90.90;;;;;;9661704;22;20181;-90
2023/08/21 19:09:57;;;;;;;6.68;5.78;;;29.10;91.30;;;;;;9661949;23;20621;-90
2023/08/21 19:13:42;;;;;;;6.75;5.35;;;29.20;91.30;;;;;;9662444;23;20559;-90
2023/08/21 19:17:31;;;;;;;5.63;5.13;;;29.10;90.80;;;;;;9664530;23;20182;-90
2023/08/21 19:21:17;;;;;;;5.78;5.00;;;29.10;91.30;;;;;;9665248;23;20593;-90
2023/08/21 19:25:06;;;;;;;5.75;5.22;;;29.00;91.30;;;;;;9664594;22;20571;-91
2023/08/21 19:28:52;;;;;;;5.88;5.22;;;29.00;91.50;;;;;;9664432;23;20177;-89
2023/08/21 19:32:42;;;;;;;7.28;6.47;;;29.00;91.50;;;;;;9665153;23;20211;-89